Aktualne dane pomiarowe

Uwaga, wersja testowa! Automatyczne pobieranie danych za pomocą narzędzi lub skryptów to umożliwiających jest zabronione.

Dane meteo z obszaru Polski uzyskane na podstawie depesz SYNOP pobieranych co godzinę z NWS. Najedź myszką na symbol przedstawiony w tabeli, aby uzyskać informacje co do jego znaczenia. Prosimy pamiętać, że to testowa wersja strony, która jeszcze nie jest ukończona. Stworzono również jest krótki FAQ dotyczący korzystania z tej podstrony Anomalie temperatury w chwili obecnej odniesione są do okresu referencyjnego 1951-2016. Okres ten będzie później zmieniony na 1981-2010. Kliknij ikonę aby pobrać plik CSV. Kliknij ikonę aby wygenerować mapę synoptyczną dla danego terminu.

Wybierz Datę:    

        

Krosno (12670)

Dane terminowe dla wybranej stacji. Kliknij datę, aby otrzymać dane z tego terminu dla wszystkich stacji.

TemperaturaZachmurzenieWiatrCiśnienieOpadyPogoda
 Data t td wb tx tn tg rh  Nt Nl Cl Cm Ch ws wd g1 g2 wx mslp ppp ch 24h 12h t ww ww w1 w2  
2019-06-30 23:00:00 22.9 15.1 17.8--- 6250.0wx-4wx--41015.8 977.7 0.0---------
2019-06-30 22:00:00 23.5 14.9 18.0--- 5950.0wx-4wx-941015.7 977.7 0.2---------
2019-06-30 21:00:00 24.3 14.8 18.2--- 5545.0wx-3wx-1231015.6 977.7 0.2---------
2019-06-30 20:00:00 24.7 14.9 18.4--- 5545.0wx-2wx---1015.5 977.7 0.0---------
2019-06-30 19:00:00 25.4 15.5 19.0--- 5445.0wx-5wx-1251015.2 977.5 -0.7---------
2019-06-30 18:00:00 26.3 15.4 19.3 30.1 19.6- 5145.0wx-5wx-1151015.1 977.5 -0.9- 0.012------
2019-06-30 17:00:00 27.5 15.6 19.9--- 4840.0wx-6wx-1161015.2 977.7 -1.1---------
2019-06-30 16:00:00 28.8 16.1 20.6--- 4630.0wx-5wx--51015.5 978.2 -1.1---------
2019-06-30 15:00:00 29.3 15.5 20.5--- 4328.0wx-5wx-1051015.7 978.4 -1.3---------
2019-06-30 14:00:00 29.7 15.9 20.8--- 4335.0wx-5wx--51016.1 978.8 -1.3---------
2019-06-30 13:00:00 30.0 15.4 20.7--- 4129.0wx-4wx--41016.5 979.3 -1.3---------
2019-06-30 12:00:00 29.2 13.9 19.7--- 3929.0wx-3wx-831017.0 979.7 -1.2- 0.06------
2019-06-30 11:00:00 28.3 10.6 17.8--- 3330.0wx-4wx-841017.6 980.1 -0.6---------
2019-06-30 10:00:00 27.4 11.9 18.0--- 3835.0wx-4wx-841018.2 980.6 -0.6---------
2019-06-30 09:00:00 26.3 12.5 17.9--- 4229.0wx-3wx--31018.7 980.9 -0.1---------
2019-06-30 08:00:00 24.5 13.8 17.8--- 5135.0wxwxwxwxwx2wx--21018.7 980.7 0.0---------
2019-06-30 07:00:00 22.2 13.4 16.6--- 5728.0wx-wx1wx--11019.5 981.2 0.9---------
2019-06-30 06:00:00 19.9 13.7 15.9 22.8 13.6 12 6835.0wx-wx1wx--11019.6 981.0 0.7- 0.012----- 12.8
2019-06-30 05:00:00 17.0 12.4 14.0--- 7424.0wx-1wx--11019.7 980.7 0.5---------
2019-06-30 04:00:00 14.4 11.0 12.2--- 8030.0wx-1wx---1019.6 980.3 -0.2---------
2019-06-30 03:00:00 15.2 10.7 12.3--- 7529.0wx-0---01019.5 980.3 -0.3---wx---
2019-06-30 02:00:00 16.1 10.9 12.8--- 7128.0wx-2wx--21019.3 980.2 -0.3---wx---
2019-06-30 01:00:00 16.6 11.0 13.1--- 7030.0wx-2wx--21019.5 980.5 0.0---------
2019-06-30 00:00:00 17.1 10.8 13.2--- 6630.0wx-1wx---1019.6 980.6 0.0---------
2019-06-29 23:00:00 18.3 10.7 13.6--- 6130.0wx-2wx---1019.3 980.5 -0.1---------
2019-06-29 22:00:00 18.4 10.8 13.7--- 6115.0wx-1wx---1019.3 980.5 0.0---------
2019-06-29 21:00:00 18.9 10.8 13.9--- 5926.0wx-1wx---1019.3 980.6 0.5---------
2019-06-29 20:00:00 19.6 10.7 14.2--- 5635.0wx-wx1wx--11019.2 980.6 0.5---------
2019-06-29 19:00:00 20.9 10.5 14.7--- 5135.0wx-wx1wx--11019.0 980.5 0.2---------
2019-06-29 18:00:00 22.8 10.3 15.4 23.9 15.0- 4530.0wx-wxwx2wx-1121018.3 980.1 -0.5- 0.012------
2019-06-29 17:00:00 23.5 9.6 15.4--- 4145.0wxwxwxwx3wx---1018.2 980.1 -0.8---------
2019-06-29 16:00:00 23.7 8.6 15.0--- 3830.0wxwxwxwx4wx---1018.4 980.3 -1.0---------
2019-06-29 15:00:00 23.5 7.6 14.5--- 3640.0wxwxwxwx5wx101151018.7 980.6 -1.4---------
2019-06-29 14:00:00 23.5 8.1 14.7--- 3730.0wxwxwxwx5wx---1019.0 980.9 -1.5---------
2019-06-29 13:00:00 22.3 8.1 14.2--- 4040.0wxwxwxwxwx6wx---1019.6 981.3 -1.1---------
2019-06-29 12:00:00 22.0 9.6 14.7--- 4530.0wxwxwxwxwx6wx-1061020.4 982.0 -0.4- 0.06------
2019-06-29 11:00:00 21.3 8.6 14.0--- 4440.0wxwxwxwx4wx-841020.9 982.4 -0.5---------
2019-06-29 10:00:00 20.7 8.4 13.6--- 4550.0wxwxwxwx3wx--31021.0 982.4 -0.7---------
2019-06-29 09:00:00 19.8 8.2 13.1--- 4730.0wxwxwxwx4wx--41021.1 982.4 -0.8---------
2019-06-29 08:00:00 18.0 7.2 11.9--- 4940.0wxwxwxwx3wx--31021.8 982.9 -0.1---------
2019-06-29 07:00:00 16.7 8.2 11.7--- 5740.0wx-wx3wx--31022.2 983.1 0.3---------
2019-06-29 06:00:00 15.1 7.6 10.7 19.0 12.2 11 6135.0wx-wx4wx--41022.6 983.2 0.9- 0.012----- 9.3
2019-06-29 05:00:00 13.5 8.3 10.3--- 7145.0wxwxwxwx3wx--31022.6 983.0 1.2---------
2019-06-29 04:00:00 12.4 7.5 9.4--- 7245.0wxwxwxwx3wx--31022.5 982.8 1.2---------
2019-06-29 03:00:00 12.4 8.3 9.8--- 7650.0wxwxwxwx3wx--31022.0 982.3 0.8---------
2019-06-29 02:00:00 13.2 8.9 10.5--- 7545.0wxwxwxwx3wx--31021.4 981.8 0.5---------
2019-06-29 01:00:00 13.8 9.6 11.1--- 7635.0wxwxwxwx2wx--21021.1 981.6 0.4---------
2019-06-29 00:00:00 13.6 10.0 11.3--- 7926.0wx-wx3wx--31021.0 981.5 0.4- 0.06------
1.2 ms

 

Print Friendly, PDF & Email